Flight Track Log - Related Links

Times and Time Zones

All times are in EST time to prevent confusion due to time zone crossing. See the CPZ5750 flight status page for this flight to view local times or setup timezone preferences in your user account.

Time Position Orientation Groundspeed Altitude Reporting Facility
EST Latitude Longitude Course Direction KTS MPH feet Rate Location/Type
Sat 12:40:57 PM 44.9000 -93.2333 301° West 149 171 2,300  Level Minneapolis TRACON
Sat 12:41:52 PM 44.9281 -93.2667 320° Northwest 153 176 3,300 1,552 Climbing Minneapolis Center
Sat 12:42:53 PM 44.9728 -93.3242 318° Northwest 205 236 5,300 2,634 Climbing Minneapolis Center
Sat 12:43:00 PM 45.1760 -93.4804 298° West  Level FlightAware Approximate
Sat 12:43:55 PM 45.0253 -93.3981 315° West 230 265 8,700  Level Minneapolis Center
Sat 12:44:00 PM 45.2213 -93.5985 299° West  Level FlightAware Approximate
Sat 12:44:56 PM 45.0739 -93.4661 315° West 244 281 10,800  Level Minneapolis Center
Sat 12:45:00 PM 45.2666 -93.7166 299° West  Level FlightAware Approximate
Sat 12:45:58 PM 45.1311 -93.5464 315° West 286 329 12,500  Level Minneapolis Center
Sat 12:46:00 PM 45.3159 -93.8315 301° West  Level FlightAware Approximate
Sat 12:46:59 PM 45.1892 -93.6283 315° West 296 341 15,000  Level Minneapolis Center
Sat 12:48:01 PM 45.2489 -93.7139 315° West 305 351 16,800 1,561 Climbing Minneapolis Center
Sat 12:49:02 PM 45.3117 -93.8017 315° West 316 364 18,200 2,000 Climbing Minneapolis Center
Sat 12:50:04 PM 45.3600 -93.9253 299° West 303 349 20,900 1,951 Climbing Minneapolis Center
Sat 12:51:05 PM 45.4000 -94.0300 299° West 301 346 22,200 1,415 Climbing Minneapolis Center
Sat 12:52:07 PM 45.4408 -94.1367 299° West 304 350 23,800 1,366 Climbing Minneapolis Center
Sat 12:53:08 PM 45.4828 -94.2458 299° West 310 357 25,000 1,220 Climbing Minneapolis Center
Sat 12:54:10 PM 45.5281 -94.3656 298° West 318 366 26,300 1,065 Climbing Minneapolis Center
Sat 12:55:12 PM 45.5683 -94.4725 298° West 322 371 27,200 927 Climbing Minneapolis Center
Sat 12:56:13 PM 45.6183 -94.5839 303° West 330 380 28,200 878 Climbing Minneapolis Center
Sat 12:57:15 PM 45.6761 -94.6919 307° West 337 388 29,000 1,113 Climbing Minneapolis Center
Sat 12:58:17 PM 45.7425 -94.8208 306° West 340 391 30,500 1,104 Climbing Minneapolis Center
Sat 12:59:20 PM 45.7969 -94.9253 307° West 331 381 31,300 816 Climbing Minneapolis Center
Sat 01:00:22 PM 45.8497 -95.0306 306° West 330 380 32,200 683 Climbing Minneapolis Center
Sat 01:01:23 PM 45.9061 -95.1394 307° West 325 374 32,700 439 Climbing Minneapolis Center
Sat 01:02:25 PM 45.9597 -95.2447 306° West 325 374 33,100 484 Climbing Minneapolis Center
Sat 01:03:27 PM 46.0131 -95.3519 306° West 327 376 33,700 439 Climbing Minneapolis Center
Sat 01:04:28 PM 46.0672 -95.4572 307° West 328 377 34,000 146 Climbing Minneapolis Center
Sat 01:05:30 PM 46.1317 -95.5867 306° West 332 382 34,000  Level Minneapolis Center
Sat 01:06:31 PM 46.1853 -95.6933 306° West 332 382 34,000  Level Minneapolis Center
Sat 01:07:33 PM 46.2406 -95.8031 306° West 334 384 34,000  Level Minneapolis Center
Sat 01:08:34 PM 46.2978 -95.9167 306° West 343 395 34,000  Level Minneapolis Center
Sat 01:09:36 PM 46.3533 -96.0272 306° West 344 396 34,000  Level Minneapolis Center
Sat 01:10:38 PM 46.4081 -96.1414 305° West 345 397 34,000  Level Minneapolis Center
Sat 01:11:39 PM 46.4631 -96.2556 305° West 345 397 34,000  Level Minneapolis Center
Sat 01:12:41 PM 46.5197 -96.3703 306° West 347 399 34,000  Level Minneapolis Center
Sat 01:13:42 PM 46.5881 -96.5111 305° West 353 406 34,000  Level Minneapolis Center
Sat 01:14:44 PM 46.6461 -96.6286 306° West 355 409 34,000  Level Minneapolis Center
Sat 01:15:46 PM 46.7036 -96.7478 305° West 357 411 34,000  Level Minneapolis Center
Sat 01:16:47 PM 46.7583 -96.8717 303° West 360 414 34,000  Level Minneapolis Center
Sat 01:17:49 PM 46.7844 -97.0097 285° West 355 409 34,000  Level Minneapolis Center
Sat 01:18:50 PM 46.8111 -97.1492 286° West 355 409 34,000  Level Minneapolis Center
Sat 01:19:52 PM 46.8383 -97.2872 286° West 354 407 34,000  Level Minneapolis Center
Sat 01:20:53 PM 46.8642 -97.4247 285° West 354 407 34,000  Level Minneapolis Center
Sat 01:21:55 PM 46.8917 -97.5633 286° West 354 407 34,000  Level Minneapolis Center
Sat 01:22:57 PM 46.9236 -97.7286 286° West 354 407 34,000  Level Minneapolis Center
Sat 01:23:58 PM 46.9492 -97.8681 285° West 354 407 34,000  Level Minneapolis Center
Sat 01:25:00 PM 46.9747 -98.0053 285° West 352 405 34,000  Level Minneapolis Center
Sat 01:26:01 PM 47.0011 -98.1444 286° West 352 405 34,000  Level Minneapolis Center
Sat 01:27:03 PM 47.0272 -98.2844 285° West 352 405 34,000  Level Minneapolis Center
Sat 01:28:04 PM 47.0522 -98.4231 285° West 353 406 34,000  Level Minneapolis Center
Sat 01:29:06 PM 47.0764 -98.5628 284° West 353 406 34,000  Level Minneapolis Center
Sat 01:30:07 PM 47.1014 -98.7017 285° West 353 406 34,000  Level Minneapolis Center
Sat 01:31:09 PM 47.1269 -98.8406 285° West 353 406 34,000  Level Minneapolis Center
Sat 01:32:10 PM 47.1558 -99.0072 284° West 353 406 34,000  Level Minneapolis Center
Sat 01:33:12 PM 47.1800 -99.1472 284° West 353 406 34,000  Level Minneapolis Center
Sat 01:34:13 PM 47.2050 -99.2869 285° West 353 406 34,000  Level Minneapolis Center
Sat 01:35:15 PM 47.2308 -99.4397 284° West 353 406 34,000  Level Minneapolis Center
Sat 01:36:16 PM 47.2519 -99.5667 284° West 353 406 34,000  Level Minneapolis Center
Sat 01:37:18 PM 47.2769 -99.7081 285° West 353 406 34,000  Level Minneapolis Center
Sat 01:38:19 PM 47.3008 -99.8481 284° West 353 406 34,000  Level Minneapolis Center
Sat 01:39:21 PM 47.3236 -99.9886 283° West 353 406 34,000  Level Minneapolis Center
Sat 01:40:22 PM 47.3464 -100.1292 283° West 353 406 34,000  Level Minneapolis Center
Sat 01:41:24 PM 47.3747 -100.2978 284° West 353 406 34,000  Level Minneapolis Center
Sat 01:42:25 PM 47.3969 -100.4372 283° West 353 406 34,000  Level Minneapolis Center
Sat 01:43:27 PM 47.4200 -100.5789 284° West 353 406 34,000  Level Minneapolis Center
Sat 01:44:28 PM 47.4483 -100.7219 286° West 357 411 34,000  Level Minneapolis Center
Sat 01:45:30 PM 47.4714 -100.8628 284° West 357 411 34,000  Level Minneapolis Center
Sat 01:46:31 PM 47.4942 -101.0206 282° West 356 410 34,000  Level Minneapolis Center
Sat 01:47:33 PM 47.5156 -101.1628 283° West 356 410 34,000  Level Minneapolis Center
Sat 01:48:34 PM 47.5375 -101.3044 283° West 355 409 34,000  Level Minneapolis Center
Sat 01:49:36 PM 47.5625 -101.4583 284° West 355 409 34,000  Level Minneapolis Center
Sat 01:50:37 PM 47.5792 -101.5886 281° West 355 409 34,000  Level Minneapolis Center
Sat 01:51:39 PM 47.5981 -101.7306 281° West 355 409 34,000  Level Minneapolis Center
Sat 01:52:40 PM 47.6247 -101.8844 284° West 354 407 34,000  Level Minneapolis Center
Sat 01:53:42 PM 47.6461 -102.0436 281° West 355 409 34,000  Level Minneapolis Center
Sat 01:54:43 PM 47.6631 -102.1869 280° West 355 409 34,000  Level Minneapolis Center
Sat 01:55:45 PM 47.6864 -102.3289 284° West 354 407 34,000  Level Minneapolis Center
Sat 01:56:46 PM 47.7053 -102.4700 281° West 354 407 34,000  Level Minneapolis Center
Sat 01:57:48 PM 47.7264 -102.6125 282° West 354 407 34,000  Level Minneapolis Center
Sat 01:58:49 PM 47.7453 -102.7547 281° West 353 406 34,000  Level Minneapolis Center
Sat 01:59:50 PM 47.7644 -102.8961 281° West 352 405 34,000  Level Minneapolis Center
Sat 02:00:52 PM 47.7828 -103.0400 281° West 354 407 34,000  Level Minneapolis Center
Sat 02:01:53 PM 47.8089 -103.2161 283° West 360 414 34,000  Level Minneapolis Center
Sat 02:02:55 PM 47.8258 -103.3594 280° West 360 414 34,000  Level Minneapolis Center
Sat 02:03:56 PM 47.8450 -103.5031 281° West 359 413 34,000  Level Minneapolis Center
Sat 02:05:04 PM 47.8681 -103.6725 282° West 358 412 34,000  Level Salt Lake Center
Sat 02:06:05 PM 47.8867 -103.8153 281° West 358 412 34,000  Level Salt Lake Center
Sat 02:07:07 PM 47.9056 -103.9594 281° West 359 413 34,000  Level Salt Lake Center
Sat 02:08:08 PM 47.9244 -104.1039 281° West 360 414 34,000  Level Salt Lake Center
Sat 02:09:10 PM 47.9436 -104.2489 281° West 360 414 34,000  Level Salt Lake Center
Sat 02:10:11 PM 47.9608 -104.3969 280° West 361 415 34,000  Level Salt Lake Center
Sat 02:11:13 PM 47.9831 -104.5728 281° West 361 415 34,000  Level Salt Lake Center
Sat 02:12:14 PM 47.9997 -104.7197 280° West 362 417 34,000  Level Salt Lake Center
Sat 02:13:16 PM 48.0197 -104.8642 282° West 359 413 34,000  Level Salt Lake Center
Sat 02:14:17 PM 48.0347 -105.0111 279° West 359 413 34,000  Level Salt Lake Center
Sat 02:15:19 PM 48.0528 -105.1583 280° West 360 414 34,000  Level Salt Lake Center
Sat 02:16:20 PM 48.0694 -105.3053 280° West 360 414 34,000  Level Salt Lake Center
Sat 02:17:22 PM 48.0861 -105.4519 280° West 360 414 34,000  Level Salt Lake Center
Sat 02:18:23 PM 48.1050 -105.6283 279° West 360 414 34,000  Level Salt Lake Center
Sat 02:19:25 PM 48.1219 -105.7756 280° West 360 414 34,000  Level Salt Lake Center
Sat 02:20:26 PM 48.1378 -105.9236 279° West 361 415 34,000  Level Salt Lake Center
Sat 02:21:28 PM 48.1547 -106.0711 280° West 361 415 34,000  Level Salt Lake Center
Sat 02:22:29 PM 48.1714 -106.2186 280° West 361 415 34,000  Level Salt Lake Center
Sat 02:23:31 PM 48.1869 -106.3661 279° West 360 414 34,000  Level Salt Lake Center
Sat 02:24:32 PM 48.2025 -106.5139 279° West 360 414 34,000  Level Salt Lake Center
Sat 02:25:34 PM 48.2219 -106.6611 281° West 360 414 34,000  Level Salt Lake Center
Sat 02:26:35 PM 48.2914 -106.8186 304° West 371 427 34,000  Level Salt Lake Center
Sat 02:27:37 PM 48.3450 -106.9506 301° West 372 428 34,000  Level Salt Lake Center
Sat 02:28:38 PM 48.4003 -107.0825 302° West 372 428 34,000  Level Salt Lake Center
Sat 02:29:40 PM 48.4525 -107.2156 301° West 371 427 34,000  Level Salt Lake Center
Sat 02:30:41 PM 48.5072 -107.3483 302° West 373 429 34,000  Level Salt Lake Center
Sat 02:31:42 PM 48.5592 -107.4825 300° West 372 428 34,000  Level Salt Lake Center
Sat 02:32:44 PM 48.6119 -107.6167 301° West 373 429 34,000  Level Salt Lake Center
Sat 02:33:45 PM 48.6661 -107.7503 302° West 373 429 34,000  Level Salt Lake Center
Sat 02:34:47 PM 48.7242 -107.8981 301° West 374 430 34,000  Level Salt Lake Center
Sat 02:35:48 PM 48.7775 -108.0358 300° West 378 435 34,000  Level Salt Lake Center
Sat 02:36:45 PM 48.8000 -108.1833 283° West 380 437 34,000  Level Edmonton Center
Sat 02:37:51 PM 48.8828 -108.3097 315° West 379 436 34,000  Level Salt Lake Center
Sat 02:38:52 PM 48.9475 -108.4758 301° West 381 438 34,000  Level Salt Lake Center
Sat 02:39:54 PM 48.9992 -108.6150 300° West 380 437 34,000  Level Salt Lake Center
Sat 02:40:45 PM 49.0167 -108.7333 283° West 370 426 34,000  Level Edmonton Center
Sat 02:41:45 PM 49.0833 -108.8667 307° West 380 437 34,000  Level Edmonton Center
Sat 02:42:45 PM 49.1167 -109.0333 287° West 380 437 34,000  Level Edmonton Center
Sat 02:43:45 PM 49.1833 -109.1667 307° West 380 437 34,000  Level Edmonton Center
Sat 02:44:45 PM 49.2333 -109.3000 300° West 380 437 34,000  Level Edmonton Center
Sat 02:45:45 PM 49.2667 -109.4500 289° West 380 437 34,000  Level Edmonton Center
Sat 02:46:45 PM 49.3333 -109.5833 308° West 380 437 34,000  Level Edmonton Center
Sat 02:47:45 PM 49.3833 -109.7167 300° West 380 437 34,000  Level Edmonton Center
Sat 02:48:45 PM 49.4333 -109.8833 295° West 380 437 34,000  Level Edmonton Center
Sat 02:49:45 PM 49.4833 -110.0167 300° West 380 437 34,000  Level Edmonton Center
Sat 02:50:45 PM 49.5500 -110.1500 308° West 380 437 34,000  Level Edmonton Center
Sat 02:51:45 PM 49.5833 -110.3000 289° West 380 437 34,000  Level Edmonton Center
Sat 02:52:45 PM 49.6500 -110.4500 305° West 380 437 34,000  Level Edmonton Center
Sat 02:53:45 PM 49.7000 -110.5833 300° West 380 437 34,000  Level Edmonton Center
Sat 02:54:45 PM 49.7333 -110.7333 289° West 380 437 34,000  Level Edmonton Center
Sat 02:55:45 PM 49.8000 -110.8833 305° West 380 437 34,000  Level Edmonton Center
Sat 02:56:45 PM 49.8333 -111.0333 289° West 380 437 34,000  Level Edmonton Center
Sat 02:57:45 PM 49.9000 -111.1667 308° West 380 437 34,000  Level Edmonton Center
Sat 02:58:45 PM 49.9333 -111.3000 291° West 380 437 34,000  Level Edmonton Center
Sat 02:59:45 PM 50.0000 -111.4667 302° West 380 437 34,000  Level Edmonton Center
Sat 03:00:45 PM 50.0333 -111.6000 291° West 380 437 34,000  Level Edmonton Center
Sat 03:01:45 PM 50.1000 -111.7500 305° West 380 437 34,000  Level Edmonton Center
Sat 03:02:45 PM 50.1500 -111.9167 295° West 390 449 34,000  Level Edmonton Center
Sat 03:03:45 PM 50.2000 -112.0500 300° West 390 449 34,000  Level Edmonton Center
Sat 03:04:45 PM 50.2500 -112.2000 298° West 390 449 34,000  Level Edmonton Center
Sat 03:05:45 PM 50.3167 -112.3333 308° West 390 449 34,000  Level Edmonton Center
Sat 03:06:45 PM 50.3667 -112.5000 295° West 390 449 34,000 -500 Level Edmonton Center
Sat 03:07:45 PM 50.4167 -112.6500 298° West 390 449 33,000 -1,300 Descending Edmonton Center
Sat 03:08:45 PM 50.4667 -112.7833 301° West 380 437 31,400 -2,000 Descending Edmonton Center
Sat 03:09:45 PM 50.5167 -112.9333 298° West 370 426 29,000 -2,400 Descending Edmonton Center
Sat 03:10:45 PM 50.5500 -113.0667 292° West 350 403 26,600 -2,300 Descending Edmonton Center
Sat 03:11:45 PM 50.6000 -113.1833 304° West 330 380 24,400 -2,250 Descending Edmonton Center
Sat 03:12:45 PM 50.6500 -113.3333 298° West 320 368 22,100 -2,150 Descending Edmonton Center
Sat 03:13:45 PM 50.7000 -113.4500 304° West 320 368 20,100 -1,950 Descending Edmonton Center
Sat 03:14:45 PM 50.7667 -113.4833 342° North 330 380 18,200 -1,850 Descending Edmonton Center
Sat 03:15:45 PM 50.8500 -113.5500 333° Northwest 320 368 16,400 -1,850 Descending Edmonton Center
Sat 03:16:45 PM 50.9333 -113.6167 333° Northwest 320 368 14,500 -2,000 Descending Edmonton Center
Sat 03:17:45 PM 51.0167 -113.7000 328° Northwest 320 368 12,400 -1,850 Descending Edmonton Center
Sat 03:18:45 PM 51.0833 -113.7667 328° Northwest 300 345 10,800 -1,700 Descending Edmonton Center
Sat 03:19:45 PM 51.1667 -113.8000 346° North 280 322 9,000 -1,600 Descending Edmonton Center
Sat 03:20:45 PM 51.2333 -113.8833 322° Northwest 270 311 7,600 -1,000 Descending Edmonton Center
Sat 03:21:45 PM 51.2833 -113.9333 328° Northwest 200 230 7,000 -1,000 Descending Edmonton Center
Sat 03:22:45 PM 51.2833 -114.0167 270° West 180 207 5,600 -750 Descending Edmonton Center
Sat 03:23:45 PM 51.2333 -114.0333 192° South 160 184 5,500 -50 Descending Edmonton Center
Sat 03:24:45 PM 51.2000 -114.0667 212° Southwest 160 184 5,500 -350 Level Edmonton Center
Sat 03:25:45 PM 51.1500 -114.0500 168° South 160 184 4,800 -750 Descending Edmonton Center
Sat 03:26:45 PM 51.1167 -114.0333 163° South 120 138 4,000 -650 Descending Edmonton Center
Sat 03:27:45 PM 51.0833 -114.0333 180° South 80 92 3,500 -200 Descending Edmonton Center
Sat 03:28:45 PM 51.0833 -114.0333 180° South 10 12 3,600 50 Climbing Edmonton Center
Sat 03:29:45 PM 51.0833 -114.0333 180° South 20 23 3,600  Level Edmonton Center
Sat 03:31:45 PM 51.0833 -114.0333 279° West 20 23 3,600  Level Edmonton Center
Sat 03:32:45 PM 51.1000 -114.0333 360° North 10 12 3,600  Level Edmonton Center
Sat 03:34:45 PM 51.1000 -114.0333 270° West 10 12 3,600  Level Edmonton Center

Login

Don't have an account? Register now (free) for customized features, flight alerts, and more!